createdAt,value
2019-03-27T00:00:15.268Z,1022.05
2019-03-27T00:01:15.279Z,1022.1
2019-03-27T00:02:15.294Z,1022.12
2019-03-27T00:03:15.316Z,1022.11
2019-03-27T00:05:15.344Z,1022.08
2019-03-27T00:06:15.356Z,1022.11
2019-03-27T00:07:15.375Z,1022.11
2019-03-27T00:08:15.385Z,1022.14
2019-03-27T00:09:15.400Z,1022.14
2019-03-27T00:10:15.415Z,1022.15
2019-03-27T00:11:16.268Z,1022.19
2019-03-27T00:12:15.450Z,1022.19
2019-03-27T00:13:15.461Z,1022.2
2019-03-27T00:14:15.480Z,1022.19
2019-03-27T00:15:15.491Z,1022.19
2019-03-27T00:16:15.516Z,1022.21
2019-03-27T00:17:15.522Z,1022.21
2019-03-27T00:18:15.543Z,1022.23
2019-03-27T00:20:15.568Z,1022.21
2019-03-27T00:21:15.585Z,1022.23
2019-03-27T00:22:15.598Z,1022.26
2019-03-27T00:23:15.620Z,1022.27
2019-03-27T00:24:15.628Z,1022.24
2019-03-27T00:25:15.647Z,1022.25
2019-03-27T00:26:15.665Z,1022.22
2019-03-27T00:27:15.774Z,1022.21
2019-03-27T00:28:15.693Z,1022.21
2019-03-27T00:29:15.708Z,1022.21
2019-03-27T00:30:15.723Z,1022.21
2019-03-27T00:31:15.734Z,1022.2
2019-03-27T00:32:15.759Z,1022.18
2019-03-27T00:33:15.768Z,1022.17
2019-03-27T00:34:15.784Z,1022.19
2019-03-27T00:35:15.799Z,1022.22
2019-03-27T00:36:15.810Z,1022.22
2019-03-27T00:37:15.829Z,1022.22
2019-03-27T00:38:15.840Z,1022.2
2019-03-27T00:39:15.861Z,1022.25
2019-03-27T00:40:15.871Z,1022.25
2019-03-27T00:41:15.891Z,1022.27
2019-03-27T00:42:15.901Z,1022.27
2019-03-27T00:43:16.009Z,1022.25
2019-03-27T00:44:15.931Z,1022.2
2019-03-27T00:45:25.687Z,1022.2
2019-03-27T00:46:15.967Z,1022.23
2019-03-27T00:47:15.977Z,1022.21
2019-03-27T00:48:15.997Z,1022.2
2019-03-27T00:49:16.009Z,1022.18
2019-03-27T00:50:16.026Z,1022.19
2019-03-27T00:52:16.058Z,1022.17
2019-03-27T00:53:16.071Z,1022.15
2019-03-27T00:54:16.092Z,1022.17
2019-03-27T00:55:16.099Z,1022.18
2019-03-27T00:56:16.114Z,1022.2
2019-03-27T00:57:16.136Z,1022.17
2019-03-27T00:58:16.148Z,1022.15
2019-03-27T00:59:19.151Z,1022.13
2019-03-27T01:00:16.176Z,1022.14
2019-03-27T01:01:16.193Z,1022.14
2019-03-27T01:02:16.205Z,1022.17
2019-03-27T01:03:16.220Z,1022.09
2019-03-27T01:04:16.236Z,1022.14
2019-03-27T01:05:16.256Z,1022.11
2019-03-27T01:06:16.270Z,1022.18
2019-03-27T01:08:16.301Z,1022.16
2019-03-27T01:09:16.312Z,1022.16
2019-03-27T01:10:16.327Z,1022.16
2019-03-27T01:11:16.347Z,1022.16
2019-03-27T01:12:16.360Z,1022.17
2019-03-27T01:13:16.376Z,1022.15
2019-03-27T01:14:16.389Z,1022.15
2019-03-27T01:15:16.402Z,1022.15
2019-03-27T01:16:16.417Z,1022.13
2019-03-27T01:17:16.438Z,1022.15
2019-03-27T01:18:16.448Z,1022.15
2019-03-27T01:19:16.467Z,1022.13
2019-03-27T01:20:16.482Z,1022.08
2019-03-27T01:21:16.493Z,1022.12
2019-03-27T01:22:16.513Z,1022.1
2019-03-27T01:24:16.539Z,1022.08
2019-03-27T01:25:16.554Z,1022.08
2019-03-27T01:26:16.569Z,1022.07
2019-03-27T01:27:16.588Z,1022.06
2019-03-27T01:28:16.599Z,1022.06
2019-03-27T01:29:16.622Z,1022.08
2019-03-27T01:30:16.632Z,1022.12
2019-03-27T01:31:16.648Z,1022.14
2019-03-27T01:32:16.660Z,1022.16
2019-03-27T01:33:16.675Z,1022.15
2019-03-27T01:34:16.694Z,1022.18
2019-03-27T01:35:16.705Z,1022.18
2019-03-27T01:36:16.724Z,1022.18
2019-03-27T01:37:16.739Z,1022.22
2019-03-27T01:38:16.753Z,1022.22
2019-03-27T01:40:16.784Z,1022.22
2019-03-27T01:41:16.800Z,1022.21
2019-03-27T01:42:16.810Z,1022.21
2019-03-27T01:43:16.830Z,1022.2
2019-03-27T01:44:16.840Z,1022.19
2019-03-27T01:45:16.864Z,1022.19
2019-03-27T01:46:16.870Z,1022.19
2019-03-27T01:47:16.889Z,1022.22
2019-03-27T01:48:16.901Z,1022.21
2019-03-27T01:49:16.915Z,1022.26
2019-03-27T01:50:16.930Z,1022.2
2019-03-27T01:51:16.953Z,1022.28
2019-03-27T01:52:16.961Z,1022.28
2019-03-27T01:53:16.981Z,1022.34
2019-03-27T01:55:17.012Z,1022.3
2019-03-27T01:56:17.021Z,1022.27
2019-03-27T01:57:17.039Z,1022.27
2019-03-27T01:58:17.057Z,1022.23
2019-03-27T01:59:17.072Z,1022.2
2019-03-27T02:00:17.088Z,1022.23
2019-03-27T02:01:17.097Z,1022.21
2019-03-27T02:02:17.117Z,1022.22
2019-03-27T02:03:17.126Z,1022.25
2019-03-27T02:04:17.141Z,1022.27
2019-03-27T02:05:17.160Z,1022.26
2019-03-27T02:06:17.175Z,1022.27
2019-03-27T02:07:17.190Z,1022.29
2019-03-27T02:08:17.201Z,1022.28
2019-03-27T02:09:17.221Z,1022.35
2019-03-27T02:10:17.231Z,1022.33
2019-03-27T02:11:17.250Z,1022.36
2019-03-27T02:12:17.263Z,1022.33
2019-03-27T02:13:17.280Z,1022.36
2019-03-27T02:14:17.290Z,1022.38
2019-03-27T02:15:17.308Z,1022.39
2019-03-27T02:16:17.327Z,1022.37
2019-03-27T02:17:17.340Z,1022.41
2019-03-27T02:18:17.350Z,1022.36
2019-03-27T02:19:17.370Z,1022.44
2019-03-27T02:20:17.381Z,1022.41
2019-03-27T02:21:17.402Z,1022.37
2019-03-27T02:22:17.410Z,1022.36
2019-03-27T02:23:17.430Z,1022.39
2019-03-27T02:24:17.445Z,1022.39
2019-03-27T02:25:17.455Z,1022.35
2019-03-27T02:27:17.486Z,1022.39
2019-03-27T02:28:17.501Z,1022.36
2019-03-27T02:29:17.516Z,1022.3
2019-03-27T02:30:17.536Z,1022.37
2019-03-27T02:31:17.558Z,1022.33
2019-03-27T02:32:20.573Z,1022.37
2019-03-27T02:33:17.576Z,1022.35
2019-03-27T02:34:17.593Z,1022.37
2019-03-27T02:35:17.612Z,1022.34
2019-03-27T02:36:17.621Z,1022.33
2019-03-27T02:37:17.641Z,1022.32
2019-03-27T02:38:17.652Z,1022.31
2019-03-27T02:39:17.673Z,1022.32
2019-03-27T02:40:17.684Z,1022.31
2019-03-27T02:41:17.700Z,1022.29
2019-03-27T02:43:17.730Z,1022.27
2019-03-27T02:44:17.743Z,1022.3
2019-03-27T02:45:17.776Z,1022.28
2019-03-27T02:46:24.791Z,1022.28
2019-03-27T02:47:17.791Z,1022.28
2019-03-27T02:48:17.803Z,1022.28
2019-03-27T02:49:17.824Z,1022.3
2019-03-27T02:50:17.833Z,1022.27
2019-03-27T02:51:17.846Z,1022.29
2019-03-27T02:52:17.863Z,1022.26
2019-03-27T02:53:17.890Z,1022.29
2019-03-27T02:54:17.898Z,1022.29
2019-03-27T02:55:17.908Z,1022.26
2019-03-27T02:56:17.924Z,1022.3
2019-03-27T02:57:17.942Z,1022.26
2019-03-27T02:59:17.968Z,1022.29
2019-03-27T03:00:17.987Z,1022.25
2019-03-27T03:01:18.145Z,1022.32
2019-03-27T03:02:18.034Z,1022.32
2019-03-27T03:03:18.028Z,1022.34
2019-03-27T03:04:18.042Z,1022.3
2019-03-27T03:05:18.063Z,1022.31
2019-03-27T03:06:18.076Z,1022.32
2019-03-27T03:07:18.087Z,1022.29
2019-03-27T03:08:18.109Z,1022.28
2019-03-27T03:09:18.118Z,1022.3
2019-03-27T03:10:18.143Z,1022.28
2019-03-27T03:11:18.152Z,1022.26
2019-03-27T03:12:18.168Z,1022.29
2019-03-27T03:13:18.179Z,1022.29
2019-03-27T03:15:18.216Z,1022.29
2019-03-27T03:16:18.224Z,1022.28
2019-03-27T03:17:18.243Z,1022.31
2019-03-27T03:18:18.260Z,1022.35
2019-03-27T03:19:18.276Z,1022.33
2019-03-27T03:20:18.284Z,1022.37
2019-03-27T03:21:18.328Z,1022.41
2019-03-27T03:22:18.317Z,1022.42
2019-03-27T03:23:18.336Z,1022.41
2019-03-27T03:24:18.345Z,1022.42
2019-03-27T03:25:18.360Z,1022.44
2019-03-27T03:26:18.380Z,1022.44
2019-03-27T03:27:18.393Z,1022.42
2019-03-27T03:28:18.411Z,1022.44
2019-03-27T03:30:18.448Z,1022.45
2019-03-27T03:31:18.453Z,1022.43
2019-03-27T03:32:18.600Z,1022.46
2019-03-27T03:33:18.499Z,1022.44
2019-03-27T03:34:18.499Z,1022.43
2019-03-27T03:35:18.521Z,1022.46
2019-03-27T03:36:18.532Z,1022.45
2019-03-27T03:37:18.545Z,1022.47
2019-03-27T03:38:18.566Z,1022.48
2019-03-27T03:39:18.609Z,1022.45
2019-03-27T03:40:18.589Z,1022.45
2019-03-27T03:41:18.605Z,1022.45
2019-03-27T03:42:18.621Z,1022.48
2019-03-27T03:43:18.639Z,1022.51
2019-03-27T03:44:18.652Z,1022.51
2019-03-27T03:45:18.670Z,1022.5
2019-03-27T03:46:18.683Z,1022.49
2019-03-27T03:47:18.717Z,1022.53
2019-03-27T03:48:18.711Z,1022.48
2019-03-27T03:49:18.725Z,1022.5
2019-03-27T03:50:18.746Z,1022.49
2019-03-27T03:51:18.761Z,1022.49
2019-03-27T03:52:18.776Z,1022.48
2019-03-27T03:53:18.788Z,1022.49
2019-03-27T03:54:18.806Z,1022.5
2019-03-27T03:55:18.819Z,1022.49
2019-03-27T03:56:18.839Z,1022.53
2019-03-27T03:57:18.849Z,1022.55
2019-03-27T03:58:18.869Z,1022.56
2019-03-27T03:59:18.879Z,1022.61
2019-03-27T04:00:19.001Z,1022.67
2019-03-27T04:02:18.929Z,1022.64
2019-03-27T04:03:18.941Z,1022.63
2019-03-27T04:04:18.959Z,1022.62
2019-03-27T04:05:18.973Z,1022.64
2019-03-27T04:06:18.988Z,1022.62
2019-03-27T04:07:19.007Z,1022.62
2019-03-27T04:08:19.030Z,1022.61
2019-03-27T04:09:19.039Z,1022.64
2019-03-27T04:10:19.048Z,1022.66
2019-03-27T04:11:19.067Z,1022.67
2019-03-27T04:12:19.089Z,1022.67
2019-03-27T04:13:19.096Z,1022.64
2019-03-27T04:14:19.115Z,1022.69
2019-03-27T04:15:19.125Z,1022.65
2019-03-27T04:16:19.144Z,1022.65
2019-03-27T04:18:19.177Z,1022.71
2019-03-27T04:19:19.189Z,1022.7
2019-03-27T04:20:19.202Z,1022.71
2019-03-27T04:21:19.222Z,1022.73
2019-03-27T04:22:19.234Z,1022.7
2019-03-27T04:23:19.252Z,1022.75
2019-03-27T04:24:19.264Z,1022.71
2019-03-27T04:25:19.284Z,1022.74
2019-03-27T04:26:19.301Z,1022.76
2019-03-27T04:27:19.314Z,1022.82
2019-03-27T04:28:19.332Z,1022.8
2019-03-27T04:29:19.347Z,1022.81
2019-03-27T04:30:19.356Z,1022.83
2019-03-27T04:31:19.377Z,1022.87
2019-03-27T04:32:19.394Z,1022.88
2019-03-27T04:34:19.418Z,1022.86
2019-03-27T04:35:19.443Z,1022.83
2019-03-27T04:36:19.451Z,1022.87
2019-03-27T04:37:19.472Z,1022.85
2019-03-27T04:38:19.481Z,1022.83
2019-03-27T04:39:19.504Z,1022.84
2019-03-27T04:40:19.516Z,1022.81
2019-03-27T04:41:19.526Z,1022.87
2019-03-27T04:42:19.542Z,1022.85
2019-03-27T04:43:19.561Z,1022.85
2019-03-27T04:44:19.577Z,1022.85
2019-03-27T04:45:19.590Z,1022.87
2019-03-27T04:46:19.609Z,1022.89
2019-03-27T04:47:31.387Z,1022.89
2019-03-27T04:48:19.640Z,1022.9
2019-03-27T04:50:19.667Z,1022.92
2019-03-27T04:51:19.687Z,1022.93
2019-03-27T04:52:19.701Z,1022.9
2019-03-27T04:53:19.722Z,1022.86
2019-03-27T04:54:19.731Z,1022.92
2019-03-27T04:55:19.751Z,1022.93
2019-03-27T04:56:19.760Z,1022.92
2019-03-27T04:57:19.781Z,1022.93
2019-03-27T04:58:19.796Z,1022.92
2019-03-27T04:59:19.806Z,1022.91
2019-03-27T05:00:19.822Z,1022.95
2019-03-27T05:01:19.843Z,1023
2019-03-27T05:02:19.858Z,1023
2019-03-27T05:03:19.957Z,1023.02
2019-03-27T05:05:19.906Z,1023.06
2019-03-27T05:06:19.917Z,1023.1
2019-03-27T05:07:19.933Z,1023.1
2019-03-27T05:08:19.955Z,1023.11
2019-03-27T05:09:19.970Z,1023.09
2019-03-27T05:10:19.984Z,1023.15
2019-03-27T05:11:19.995Z,1023.14
2019-03-27T05:12:20.015Z,1023.14
2019-03-27T05:13:20.027Z,1023.13
2019-03-27T05:14:20.046Z,1023.12
2019-03-27T05:15:20.061Z,1023.16
2019-03-27T05:16:20.078Z,1023.17
2019-03-27T05:17:20.089Z,1023.16
2019-03-27T05:18:20.110Z,1023.23
2019-03-27T05:19:20.121Z,1023.19
2019-03-27T05:20:20.138Z,1023.24
2019-03-27T05:21:20.156Z,1023.19
2019-03-27T05:22:20.172Z,1023.17
2019-03-27T05:23:20.183Z,1023.25
2019-03-27T05:24:20.204Z,1023.2
2019-03-27T05:25:20.215Z,1023.19
2019-03-27T05:26:20.235Z,1023.17
2019-03-27T05:27:20.247Z,1023.19
2019-03-27T05:28:20.266Z,1023.17
2019-03-27T05:29:20.280Z,1023.19
2019-03-27T05:30:20.294Z,1023.17
2019-03-27T05:31:20.314Z,1023.19
2019-03-27T05:32:20.325Z,1023.21
2019-03-27T05:33:20.348Z,1023.19
2019-03-27T05:34:20.357Z,1023.22
2019-03-27T05:35:20.377Z,1023.23
2019-03-27T05:37:20.404Z,1023.22
2019-03-27T05:38:20.425Z,1023.26
2019-03-27T05:39:20.440Z,1023.26
2019-03-27T05:40:20.457Z,1023.24
2019-03-27T05:41:20.468Z,1023.28
2019-03-27T05:42:20.492Z,1023.28
2019-03-27T05:43:20.499Z,1023.25
2019-03-27T05:44:20.521Z,1023.28
2019-03-27T05:45:20.531Z,1023.25
2019-03-27T05:46:20.549Z,1023.28
2019-03-27T05:47:20.566Z,1023.28
2019-03-27T05:48:20.582Z,1023.25
2019-03-27T05:49:20.594Z,1023.25
2019-03-27T05:50:20.615Z,1023.29
2019-03-27T05:51:20.625Z,1023.32
2019-03-27T05:53:20.658Z,1023.32
2019-03-27T05:54:20.673Z,1023.35
2019-03-27T05:55:20.692Z,1023.36
2019-03-27T05:56:20.705Z,1023.36
2019-03-27T05:57:20.724Z,1023.38
2019-03-27T05:58:20.735Z,1023.37
2019-03-27T05:59:20.757Z,1023.37
2019-03-27T06:00:20.771Z,1023.46
2019-03-27T06:01:20.784Z,1023.44
2019-03-27T06:02:20.804Z,1023.43
2019-03-27T06:03:20.817Z,1023.51
2019-03-27T06:04:20.836Z,1023.48
2019-03-27T06:05:20.855Z,1023.5
2019-03-27T06:06:20.868Z,1023.52
2019-03-27T06:07:20.879Z,1023.53
2019-03-27T06:09:20.916Z,1023.57
2019-03-27T06:10:20.940Z,1023.55
2019-03-27T06:11:20.950Z,1023.58
2019-03-27T06:12:20.958Z,1023.6
2019-03-27T06:13:20.980Z,1023.63
2019-03-27T06:14:20.991Z,1023.62
2019-03-27T06:15:21.010Z,1023.65
2019-03-27T06:16:21.027Z,1023.65
2019-03-27T06:17:21.047Z,1023.68
2019-03-27T06:18:21.057Z,1023.68
2019-03-27T06:19:21.075Z,1023.7
2019-03-27T06:20:21.091Z,1023.71
2019-03-27T06:21:21.107Z,1023.71
2019-03-27T06:22:21.120Z,1023.73
2019-03-27T06:23:21.143Z,1023.74
2019-03-27T06:25:21.168Z,1023.73
2019-03-27T06:26:21.189Z,1023.76
2019-03-27T06:27:21.199Z,1023.79
2019-03-27T06:28:21.219Z,1023.79
2019-03-27T06:29:21.232Z,1023.72
2019-03-27T06:30:21.251Z,1023.78
2019-03-27T06:31:21.263Z,1023.78
2019-03-27T06:32:21.285Z,1023.75
2019-03-27T06:33:21.296Z,1023.76
2019-03-27T06:34:21.315Z,1023.76
2019-03-27T06:35:21.331Z,1023.8
2019-03-27T06:36:21.348Z,1023.82
2019-03-27T06:37:21.362Z,1023.79
2019-03-27T06:38:21.379Z,1023.81
2019-03-27T06:40:21.409Z,1023.79
2019-03-27T06:41:21.433Z,1023.72
2019-03-27T06:42:21.441Z,1023.82
2019-03-27T06:43:21.462Z,1023.76
2019-03-27T06:44:21.474Z,1023.75
2019-03-27T06:45:21.490Z,1023.79
2019-03-27T06:46:21.511Z,1023.72
2019-03-27T06:47:21.522Z,1023.77
2019-03-27T06:48:26.311Z,1023.77
2019-03-27T06:49:21.558Z,1023.74
2019-03-27T06:50:21.575Z,1023.76
2019-03-27T06:51:24.955Z,1023.8
2019-03-27T06:52:21.603Z,1023.8
2019-03-27T06:53:21.627Z,1023.78
2019-03-27T06:54:21.636Z,1023.78
2019-03-27T06:55:21.657Z,1023.8
2019-03-27T06:56:21.668Z,1023.79
2019-03-27T06:57:21.689Z,1023.82
2019-03-27T06:58:21.709Z,1023.83
2019-03-27T06:59:21.717Z,1023.79
2019-03-27T07:00:21.741Z,1023.85
2019-03-27T07:01:21.755Z,1023.84
2019-03-27T07:02:21.767Z,1023.91
2019-03-27T07:03:21.787Z,1023.88
2019-03-27T07:04:21.799Z,1023.89
2019-03-27T07:05:21.820Z,1023.89
2019-03-27T07:06:21.835Z,1023.87
2019-03-27T07:07:21.853Z,1023.9
2019-03-27T07:08:21.875Z,1023.84
2019-03-27T07:09:21.883Z,1023.86
2019-03-27T07:10:21.901Z,1023.8
2019-03-27T07:12:21.936Z,1023.86
2019-03-27T07:13:21.954Z,1023.84
2019-03-27T07:14:21.970Z,1023.83
2019-03-27T07:15:21.981Z,1023.8
2019-03-27T07:16:22.003Z,1023.84
2019-03-27T07:17:22.019Z,1023.84
2019-03-27T07:18:22.044Z,1023.91
2019-03-27T07:19:22.049Z,1023.92
2019-03-27T07:20:22.070Z,1023.9
2019-03-27T07:21:22.079Z,1023.9
2019-03-27T07:22:22.100Z,1023.96
2019-03-27T07:23:22.119Z,1023.93
2019-03-27T07:24:22.135Z,1023.97
2019-03-27T07:25:22.151Z,1023.94
2019-03-27T07:26:22.165Z,1023.95
2019-03-27T07:28:22.198Z,1023.94
2019-03-27T07:29:22.215Z,1023.97
2019-03-27T07:30:22.232Z,1023.98
2019-03-27T07:31:22.252Z,1024
2019-03-27T07:32:22.269Z,1024.02
2019-03-27T07:33:22.283Z,1024.04
2019-03-27T07:34:22.303Z,1024.04
2019-03-27T07:35:22.316Z,1024.01
2019-03-27T07:36:22.332Z,1024.07
2019-03-27T07:37:22.353Z,1024.07
2019-03-27T07:38:22.366Z,1024.07
2019-03-27T07:39:22.384Z,1024.09
2019-03-27T07:40:22.404Z,1024.13
2019-03-27T07:41:22.417Z,1024.13
2019-03-27T07:42:22.438Z,1024.16
2019-03-27T07:44:22.468Z,1024.15
2019-03-27T07:45:22.489Z,1024.23
2019-03-27T07:46:22.503Z,1024.18
2019-03-27T07:47:22.531Z,1024.26
2019-03-27T07:48:22.537Z,1024.22
2019-03-27T07:49:22.558Z,1024.18
2019-03-27T07:50:22.577Z,1024.19
2019-03-27T07:51:22.592Z,1024.22
2019-03-27T07:52:22.606Z,1024.2
2019-03-27T07:53:22.755Z,1024.15
2019-03-27T07:54:22.647Z,1024.22
2019-03-27T07:55:22.658Z,1024.19
2019-03-27T07:56:22.680Z,1024.23
2019-03-27T07:57:22.694Z,1024.19
2019-03-27T07:58:22.715Z,1024.23
2019-03-27T08:00:22.746Z,1024.2
2019-03-27T08:01:22.768Z,1024.24
2019-03-27T08:02:22.785Z,1024.22
2019-03-27T08:03:22.802Z,1024.3
2019-03-27T08:04:22.819Z,1024.29
2019-03-27T08:05:22.838Z,1024.3
2019-03-27T08:06:22.851Z,1024.3
2019-03-27T08:07:26.920Z,1024.32
2019-03-27T08:08:22.893Z,1024.31
2019-03-27T08:09:23.116Z,1024.33
2019-03-27T08:10:22.923Z,1024.27
2019-03-27T08:11:23.035Z,1024.29
2019-03-27T08:12:22.959Z,1024.32
2019-03-27T08:13:22.981Z,1024.29
2019-03-27T08:15:23.013Z,1024.29
2019-03-27T08:16:23.031Z,1024.24
2019-03-27T08:17:23.049Z,1024.32
2019-03-27T08:18:23.074Z,1024.31
2019-03-27T08:19:23.087Z,1024.31
2019-03-27T08:20:23.113Z,1024.34
2019-03-27T08:21:23.121Z,1024.24
2019-03-27T08:22:23.144Z,1024.29
2019-03-27T08:23:23.157Z,1024.28
2019-03-27T08:24:23.175Z,1024.24
2019-03-27T08:25:23.194Z,1024.22
2019-03-27T08:26:23.218Z,1024.29
2019-03-27T08:27:23.235Z,1024.29
2019-03-27T08:28:23.249Z,1024.28
2019-03-27T08:29:23.270Z,1024.28
2019-03-27T08:30:23.291Z,1024.29
2019-03-27T08:31:23.306Z,1024.3
2019-03-27T08:32:23.320Z,1024.31
2019-03-27T08:33:23.351Z,1024.29
2019-03-27T08:34:23.356Z,1024.36
2019-03-27T08:35:23.379Z,1024.31
2019-03-27T08:36:23.398Z,1024.3
2019-03-27T08:37:23.416Z,1024.29
2019-03-27T08:38:23.499Z,1024.32
2019-03-27T08:39:23.462Z,1024.32
2019-03-27T08:40:23.467Z,1024.38
2019-03-27T08:41:23.490Z,1024.39
2019-03-27T08:42:23.503Z,1024.41
2019-03-27T08:43:25.539Z,1024.37
2019-03-27T08:44:23.545Z,1024.39
2019-03-27T08:45:23.563Z,1024.4
2019-03-27T08:47:23.596Z,1024.4
2019-03-27T08:48:23.615Z,1024.37
2019-03-27T08:49:23.641Z,1024.38
2019-03-27T08:50:23.651Z,1024.35
2019-03-27T08:51:23.672Z,1024.35
2019-03-27T08:52:23.747Z,1024.39
2019-03-27T08:53:23.707Z,1024.36
2019-03-27T08:54:23.731Z,1024.38
2019-03-27T08:55:23.744Z,1024.37
2019-03-27T08:56:23.767Z,1024.4
2019-03-27T08:57:23.780Z,1024.42
2019-03-27T08:58:23.799Z,1024.4
2019-03-27T08:59:23.822Z,1024.4
2019-03-27T09:00:23.836Z,1024.45
2019-03-27T09:01:23.854Z,1024.41
2019-03-27T09:03:23.892Z,1024.43
2019-03-27T09:04:23.914Z,1024.42
2019-03-27T09:05:23.932Z,1024.45
2019-03-27T09:06:33.355Z,1024.49
2019-03-27T09:07:23.968Z,1024.46
2019-03-27T09:08:23.984Z,1024.46
2019-03-27T09:09:24.006Z,1024.47
2019-03-27T09:10:24.020Z,1024.45
2019-03-27T09:11:24.043Z,1024.49
2019-03-27T09:12:24.162Z,1024.52
2019-03-27T09:13:24.080Z,1024.54
2019-03-27T09:14:24.093Z,1024.59
2019-03-27T09:15:24.111Z,1024.51
2019-03-27T09:16:24.134Z,1024.56
2019-03-27T09:17:24.148Z,1024.55
2019-03-27T09:19:34.837Z,1024.5
2019-03-27T09:20:24.203Z,1024.53
2019-03-27T09:21:24.225Z,1024.56
2019-03-27T09:22:24.239Z,1024.56
2019-03-27T09:23:24.262Z,1024.54
2019-03-27T09:24:24.276Z,1024.5
2019-03-27T09:25:24.300Z,1024.5
2019-03-27T09:26:24.328Z,1024.48
2019-03-27T09:27:24.335Z,1024.5
2019-03-27T09:28:24.350Z,1024.49
2019-03-27T09:29:24.373Z,1024.53
2019-03-27T09:30:24.387Z,1024.45
2019-03-27T09:31:24.409Z,1024.48
2019-03-27T09:32:24.423Z,1024.48
2019-03-27T09:33:24.445Z,1024.47
2019-03-27T09:35:24.484Z,1024.52
2019-03-27T09:36:24.503Z,1024.5
2019-03-27T09:37:24.517Z,1024.52
2019-03-27T09:38:24.535Z,1024.55
2019-03-27T09:39:24.655Z,1024.57
2019-03-27T09:40:24.580Z,1024.54
2019-03-27T09:41:24.590Z,1024.57
2019-03-27T09:42:24.632Z,1024.59
2019-03-27T09:43:24.628Z,1024.58
2019-03-27T09:44:24.651Z,1024.56
2019-03-27T09:45:24.665Z,1024.59
2019-03-27T09:46:24.683Z,1024.57
2019-03-27T09:47:24.709Z,1024.6
2019-03-27T09:48:24.727Z,1024.59
2019-03-27T09:50:24.760Z,1024.58
2019-03-27T09:51:24.789Z,1024.56
2019-03-27T09:52:24.798Z,1024.59
2019-03-27T09:53:24.817Z,1024.56
2019-03-27T09:54:24.842Z,1024.52
2019-03-27T09:55:24.854Z,1024.54
2019-03-27T09:56:24.873Z,1024.54
2019-03-27T09:57:24.899Z,1024.56
2019-03-27T09:58:24.911Z,1024.54
2019-03-27T09:59:24.934Z,1024.52
2019-03-27T10:00:24.954Z,1024.49
2019-03-27T10:01:24.969Z,1024.5
2019-03-27T10:02:24.991Z,1024.54
2019-03-27T10:03:25.006Z,1024.5
2019-03-27T10:04:25.030Z,1024.56
2019-03-27T10:05:25.044Z,1024.49
2019-03-27T10:06:25.067Z,1024.53
2019-03-27T10:07:25.099Z,1024.6
2019-03-27T10:08:25.111Z,1024.64
2019-03-27T10:09:25.123Z,1024.63
2019-03-27T10:10:25.143Z,1024.57
2019-03-27T10:11:25.161Z,1024.6
2019-03-27T10:12:25.180Z,1024.63
2019-03-27T10:13:25.199Z,1024.62
2019-03-27T10:14:25.217Z,1024.63
2019-03-27T10:15:25.236Z,1024.68
2019-03-27T10:16:25.255Z,1024.67
2019-03-27T10:17:25.273Z,1024.65
2019-03-27T10:18:25.295Z,1024.69
2019-03-27T10:19:25.311Z,1024.68
2019-03-27T10:20:25.329Z,1024.71
2019-03-27T10:22:25.367Z,1024.67
2019-03-27T10:23:25.387Z,1024.64
2019-03-27T10:24:25.407Z,1024.65
2019-03-27T10:25:25.423Z,1024.72
2019-03-27T10:26:25.442Z,1024.68
2019-03-27T10:27:25.461Z,1024.73
2019-03-27T10:28:25.479Z,1024.74
2019-03-27T10:29:25.498Z,1024.76
2019-03-27T10:30:25.517Z,1024.77
2019-03-27T10:31:25.535Z,1024.67
2019-03-27T10:32:25.553Z,1024.72
2019-03-27T10:33:25.574Z,1024.72
2019-03-27T10:34:25.613Z,1024.68
2019-03-27T10:35:25.610Z,1024.69
2019-03-27T10:36:25.631Z,1024.69
2019-03-27T10:38:25.667Z,1024.77
2019-03-27T10:39:25.690Z,1024.68
2019-03-27T10:40:25.716Z,1024.71
2019-03-27T10:41:25.724Z,1024.73
2019-03-27T10:42:25.741Z,1024.65
2019-03-27T10:43:25.760Z,1024.66
2019-03-27T10:44:25.781Z,1024.67
2019-03-27T10:45:25.799Z,1024.72
2019-03-27T10:46:25.818Z,1024.71
2019-03-27T10:47:25.836Z,1024.71
2019-03-27T10:48:25.855Z,1024.74
2019-03-27T10:49:25.874Z,1024.72
2019-03-27T10:50:25.892Z,1024.76
2019-03-27T10:51:25.912Z,1024.73
2019-03-27T10:52:25.931Z,1024.73
2019-03-27T10:54:25.969Z,1024.7
2019-03-27T10:55:25.988Z,1024.73
2019-03-27T10:56:26.006Z,1024.76
2019-03-27T10:57:26.025Z,1024.76
2019-03-27T10:58:26.083Z,1024.71
2019-03-27T10:59:26.065Z,1024.72
2019-03-27T11:00:26.083Z,1024.76
2019-03-27T11:01:26.101Z,1024.74
2019-03-27T11:02:26.120Z,1024.79
2019-03-27T11:03:26.147Z,1024.8
2019-03-27T11:04:26.159Z,1024.77
2019-03-27T11:05:26.177Z,1024.74
2019-03-27T11:06:26.199Z,1024.75
2019-03-27T11:07:26.217Z,1024.71
2019-03-27T11:08:26.234Z,1024.69
2019-03-27T11:10:26.273Z,1024.68
2019-03-27T11:11:26.294Z,1024.73
2019-03-27T11:12:26.311Z,1024.73
2019-03-27T11:13:26.330Z,1024.69
2019-03-27T11:14:37.071Z,1024.67
2019-03-27T11:15:26.367Z,1024.68
2019-03-27T11:16:26.422Z,1024.66
2019-03-27T11:17:26.406Z,1024.67
2019-03-27T11:18:26.426Z,1024.63
2019-03-27T11:19:26.444Z,1024.66
2019-03-27T11:20:31.087Z,1024.73
2019-03-27T11:21:26.483Z,1024.68
2019-03-27T11:22:26.502Z,1024.64
2019-03-27T11:23:26.521Z,1024.67
2019-03-27T11:25:26.560Z,1024.68
2019-03-27T11:26:26.596Z,1024.68
2019-03-27T11:27:26.599Z,1024.66
2019-03-27T11:28:26.617Z,1024.66
2019-03-27T11:29:26.636Z,1024.68
2019-03-27T11:30:26.655Z,1024.68
2019-03-27T11:31:26.674Z,1024.68
2019-03-27T11:32:26.693Z,1024.67
2019-03-27T11:33:28.872Z,1024.66
2019-03-27T11:34:26.733Z,1024.68
2019-03-27T11:35:26.750Z,1024.68
2019-03-27T11:36:26.770Z,1024.68
2019-03-27T11:37:26.788Z,1024.66
2019-03-27T11:38:26.807Z,1024.66
2019-03-27T11:39:26.827Z,1024.67
2019-03-27T11:40:26.849Z,1024.66
2019-03-27T11:41:26.864Z,1024.65
2019-03-27T11:42:26.891Z,1024.65
2019-03-27T11:43:26.903Z,1024.63
2019-03-27T11:44:26.921Z,1024.65
2019-03-27T11:45:26.941Z,1024.59
2019-03-27T11:46:26.963Z,1024.61
2019-03-27T11:47:26.980Z,1024.64
2019-03-27T11:48:26.998Z,1024.56
2019-03-27T11:49:27.018Z,1024.61
2019-03-27T11:50:27.039Z,1024.6
2019-03-27T11:51:27.056Z,1024.64
2019-03-27T11:52:29.611Z,1024.61
2019-03-27T11:53:27.095Z,1024.58
2019-03-27T11:54:27.117Z,1024.53
2019-03-27T11:55:27.133Z,1024.58
2019-03-27T11:57:27.172Z,1024.56
2019-03-27T11:58:27.191Z,1024.53
2019-03-27T11:59:27.210Z,1024.57
2019-03-27T12:00:27.233Z,1024.52
2019-03-27T12:01:38.886Z,1024.52
2019-03-27T12:02:27.271Z,1024.52
2019-03-27T12:03:27.287Z,1024.49
2019-03-27T12:04:27.307Z,1024.46
2019-03-27T12:05:27.327Z,1024.48
2019-03-27T12:06:27.350Z,1024.47
2019-03-27T12:07:27.365Z,1024.47
2019-03-27T12:08:27.385Z,1024.45
2019-03-27T12:09:27.405Z,1024.52
2019-03-27T12:10:27.426Z,1024.54
2019-03-27T12:11:27.447Z,1024.51
2019-03-27T12:13:27.482Z,1024.57
2019-03-27T12:14:27.501Z,1024.51
2019-03-27T12:15:27.521Z,1024.56
2019-03-27T12:16:27.540Z,1024.53
2019-03-27T12:17:27.559Z,1024.58
2019-03-27T12:18:27.579Z,1024.59
2019-03-27T12:19:27.599Z,1024.52
2019-03-27T12:20:27.618Z,1024.55
2019-03-27T12:21:27.637Z,1024.49
2019-03-27T12:22:27.657Z,1024.51
2019-03-27T12:23:27.677Z,1024.52
2019-03-27T12:24:28.692Z,1024.54
2019-03-27T12:25:27.717Z,1024.54
2019-03-27T12:26:27.737Z,1024.59
2019-03-27T12:27:27.757Z,1024.59
2019-03-27T12:29:27.827Z,1024.57
2019-03-27T12:30:27.817Z,1024.51
2019-03-27T12:31:27.835Z,1024.52
2019-03-27T12:32:27.856Z,1024.54
2019-03-27T12:33:27.880Z,1024.58
2019-03-27T12:34:27.899Z,1024.58
2019-03-27T12:35:27.914Z,1024.54
2019-03-27T12:36:27.933Z,1024.51
2019-03-27T12:37:27.953Z,1024.53
2019-03-27T12:38:27.975Z,1024.5
2019-03-27T12:39:27.991Z,1024.5
2019-03-27T12:40:28.013Z,1024.52
2019-03-27T12:41:28.034Z,1024.56
2019-03-27T12:42:28.050Z,1024.49
2019-03-27T12:43:28.070Z,1024.5
2019-03-27T12:45:28.109Z,1024.44
2019-03-27T12:46:28.129Z,1024.43
2019-03-27T12:47:28.147Z,1024.4
2019-03-27T12:48:28.167Z,1024.46
2019-03-27T12:49:28.186Z,1024.41